Time;durP1;ratioP1;P1;durP2;ratioP2;P2;SDS_P1;SDS_P2;PMS_P1;PMS_P2;Temp;Humidity;BMP_temperature;BMP_pressure;BME280_temperature;BME280_humidity;BME280_pressure;Samples;Min_cycle;Max_cycle;Signal;HPM_P1;HPM_P2
2022/07/05 00:01:55;;;;;;;14.10;6.60;;;;;;;15.20;80.16;102031.84;5071168;28;20036;-71
2022/07/05 00:04:20;;;;;;;12.75;7.20;;;;;;;15.10;79.92;102037.56;5071333;28;20102;-71
2022/07/05 00:09:29;;;;;;;12.80;6.50;;;;;;;14.88;81.80;102028.72;5071580;28;20047;-71
2022/07/05 00:11:55;;;;;;;10.15;5.90;;;;;;;14.82;82.42;102024.16;5071027;28;20028;-71
2022/07/05 00:14:20;;;;;;;10.18;5.72;;;;;;;14.82;83.06;102032.22;5071009;28;20388;-71
2022/07/05 00:16:45;;;;;;;11.82;6.15;;;;;;;14.75;82.17;102029.50;5070833;28;20125;-71
2022/07/05 00:19:11;;;;;;;13.77;6.28;;;;;;;14.66;82.88;102034.16;5071314;28;20028;-71
2022/07/05 00:21:36;;;;;;;10.57;6.30;;;;;;;14.60;83.26;102028.75;5070969;28;20103;-71
2022/07/05 00:24:02;;;;;;;11.70;5.97;;;;;;;14.57;83.77;102029.16;5070997;28;20384;-71
2022/07/05 00:26:28;;;;;;;10.88;6.65;;;;;;;14.51;83.38;102025.31;5069568;28;20041;-71
2022/07/05 00:28:53;;;;;;;11.25;6.18;;;;;;;14.45;82.17;102029.63;5070701;28;20032;-71
2022/07/05 00:31:18;;;;;;;13.15;7.18;;;;;;;14.51;83.49;102029.88;5070484;28;20048;-71
2022/07/05 00:33:44;;;;;;;11.57;6.32;;;;;;;14.46;83.02;102033.97;5070695;28;20060;-71
2022/07/05 00:36:09;;;;;;;10.57;5.85;;;;;;;14.37;83.15;102029.75;5070623;28;20028;-71
2022/07/05 00:38:34;;;;;;;10.38;6.43;;;;;;;14.32;84.19;102023.31;5070616;28;20033;-71
2022/07/05 00:41:00;;;;;;;14.15;7.25;;;;;;;14.29;84.28;102019.16;5070468;28;20387;-71
2022/07/05 00:43:25;;;;;;;10.10;5.70;;;;;;;14.26;84.33;102016.88;5070338;28;20036;-71
2022/07/05 00:45:50;;;;;;;10.95;6.20;;;;;;;14.24;84.54;102018.91;5070371;28;20029;-71
2022/07/05 00:53:51;;;;;;;11.48;7.15;;;;;;;14.14;83.35;102013.84;5016817;24;20025;-72
2022/07/05 00:58:46;;;;;;;13.00;6.75;;;;;;;14.11;83.91;102027.66;5564550;23;20425;-72
2022/07/05 01:01:12;;;;;;;10.65;6.63;;;;;;;14.05;84.42;102012.34;4895783;29;20040;-71
2022/07/05 01:03:38;;;;;;;9.27;6.10;;;;;;;14.00;84.50;102023.63;4895233;29;20043;-71
2022/07/05 01:06:09;;;;;;;9.02;5.97;;;;;;;13.93;85.73;102025.41;4895197;29;20487;-71
2022/07/05 01:08:40;;;;;;;9.85;6.00;;;;;;;13.87;86.36;102030.72;4893403;29;20032;-71
2022/07/05 01:11:07;;;;;;;9.65;6.20;;;;;;;13.86;85.03;102021.84;4895147;29;20045;-71
2022/07/05 01:13:33;;;;;;;11.85;6.72;;;;;;;13.86;84.72;102031.72;4894846;29;20372;-71
2022/07/05 01:15:59;;;;;;;11.88;6.20;;;;;;;13.85;85.43;102020.16;4894989;29;20063;-71
2022/07/05 01:18:25;;;;;;;10.30;5.85;;;;;;;13.91;86.01;102027.47;4894786;29;20072;-71
2022/07/05 01:20:51;;;;;;;10.52;6.00;;;;;;;13.93;85.83;102030.75;4894728;29;20033;-71
2022/07/05 01:23:18;;;;;;;12.50;6.80;;;;;;;13.85;85.70;102019.34;4894645;29;20028;-71
2022/07/05 01:25:45;;;;;;;9.52;6.43;;;;;;;13.78;85.56;102029.97;4894676;29;20068;-71
2022/07/05 01:28:11;;;;;;;12.23;6.45;;;;;;;13.71;86.05;102034.44;4894091;29;20070;-71
2022/07/05 01:30:39;;;;;;;11.48;5.97;;;;;;;13.65;86.50;102028.00;4894569;29;20095;-71
2022/07/05 01:33:06;;;;;;;12.05;7.10;;;;;;;13.63;86.25;102029.19;4895608;29;20024;-66
2022/07/05 01:35:31;;;;;;;13.10;7.07;;;;;;;13.54;86.42;102031.97;4895784;29;20048;-66
2022/07/05 01:37:57;;;;;;;13.00;6.55;;;;;;;13.52;86.63;102027.84;4894718;29;20059;-71
2022/07/05 01:40:22;;;;;;;11.52;6.20;;;;;;;13.48;86.16;102024.66;4894823;29;20036;-71
2022/07/05 01:42:48;;;;;;;12.77;6.68;;;;;;;13.46;86.88;102031.25;4894336;29;20033;-71
2022/07/05 01:45:38;;;;;;;11.57;7.10;;;;;;;13.45;86.80;102025.06;4894378;29;20040;-71
2022/07/05 01:48:00;;;;;;;11.10;6.82;;;;;;;13.36;86.45;102012.75;4894009;29;20496;-71
2022/07/05 01:50:28;;;;;;;10.90;7.00;;;;;;;13.28;86.52;102016.41;4894333;29;20028;-71
2022/07/05 01:52:55;;;;;;;12.25;6.28;;;;;;;13.32;86.78;102025.72;4893785;29;20075;-71
2022/07/05 01:55:20;;;;;;;13.65;6.63;;;;;;;13.28;86.94;102019.06;4894172;29;20136;-71
2022/07/05 01:57:46;;;;;;;9.98;6.43;;;;;;;13.28;87.32;102021.75;4894072;29;20127;-71
2022/07/05 02:00:12;;;;;;;10.10;5.80;;;;;;;13.29;87.88;102030.63;4880056;29;20068;-71
2022/07/05 02:02:41;;;;;;;10.05;5.68;;;;;;;13.27;87.23;102016.56;4875872;29;20033;-71
2022/07/05 02:05:06;;;;;;;11.27;6.55;;;;;;;13.23;87.59;102016.09;4876027;29;20040;-71
2022/07/05 02:07:32;;;;;;;11.82;7.07;;;;;;;13.26;87.87;102018.44;4876017;29;20025;-71
2022/07/05 02:09:57;;;;;;;11.23;5.70;;;;;;;13.27;88.36;102013.88;4876286;29;20120;-71
2022/07/05 02:12:22;;;;;;;11.25;6.22;;;;;;;13.26;87.97;102015.75;4893619;29;20071;-71
2022/07/05 02:14:48;;;;;;;11.77;5.95;;;;;;;13.29;87.78;102012.69;4894234;29;20056;-71
2022/07/05 02:17:13;;;;;;;11.38;7.55;;;;;;;13.28;87.70;102011.03;4893733;29;20068;-71
2022/07/05 02:19:38;;;;;;;11.00;6.40;;;;;;;13.30;88.89;102010.84;4893833;29;20369;-71
2022/07/05 02:22:04;;;;;;;11.93;7.53;;;;;;;13.25;88.19;102008.66;4893765;29;20388;-71
2022/07/05 02:24:29;;;;;;;10.63;5.95;;;;;;;13.16;88.05;102001.75;4877009;29;20476;-71
2022/07/05 02:26:54;;;;;;;12.82;6.47;;;;;;;13.07;88.55;101998.34;4893566;29;20765;-71
2022/07/05 02:29:20;;;;;;;12.57;7.10;;;;;;;13.11;89.41;102002.31;4893937;29;20044;-71
2022/07/05 02:31:45;;;;;;;12.38;6.20;;;;;;;13.10;88.79;102014.06;4893421;29;20037;-71
2022/07/05 02:34:11;;;;;;;12.15;7.18;;;;;;;13.09;88.73;102015.06;4893593;29;20387;-71
2022/07/05 02:36:36;;;;;;;14.43;7.45;;;;;;;13.05;88.31;102015.63;4893566;29;20361;-71
2022/07/05 02:39:02;;;;;;;12.85;7.65;;;;;;;12.98;89.11;102028.91;4894198;29;20044;-71
2022/07/05 02:41:27;;;;;;;15.35;8.65;;;;;;;12.98;89.17;102028.91;4897665;29;20028;-71
2022/07/05 02:43:52;;;;;;;12.93;7.18;;;;;;;13.00;89.41;102026.06;4897239;29;20100;-71
2022/07/05 02:46:18;;;;;;;12.13;6.65;;;;;;;12.95;88.87;102026.59;4897232;29;20037;-71
2022/07/05 02:48:44;;;;;;;11.70;6.88;;;;;;;12.87;88.90;102024.00;4880303;29;20060;-71
2022/07/05 02:51:09;;;;;;;11.52;6.82;;;;;;;12.83;88.78;102020.84;4897208;29;20118;-71
2022/07/05 02:53:35;;;;;;;14.07;7.85;;;;;;;12.82;89.08;102029.91;4897059;29;20037;-71
2022/07/05 02:56:01;;;;;;;11.95;7.15;;;;;;;12.78;89.18;102025.91;4897139;29;20491;-71
2022/07/05 02:58:27;;;;;;;12.02;6.75;;;;;;;12.82;89.43;102042.47;4897045;29;20108;-70
2022/07/05 03:00:52;;;;;;;12.50;7.35;;;;;;;12.72;89.38;102024.81;4897550;29;20476;-71
2022/07/05 03:03:17;;;;;;;14.85;7.35;;;;;;;12.74;90.35;102039.88;4897115;29;20075;-71
2022/07/05 03:05:43;;;;;;;12.18;6.97;;;;;;;12.71;89.89;102047.25;4896958;29;20037;-71
2022/07/05 03:08:09;;;;;;;15.23;6.95;;;;;;;12.69;89.92;102038.56;4896984;29;20041;-71
2022/07/05 03:10:34;;;;;;;13.27;7.22;;;;;;;12.65;90.80;102039.94;4896934;29;20055;-71
2022/07/05 03:13:00;;;;;;;14.38;8.45;;;;;;;12.63;90.63;102041.16;4878676;29;20035;-71
2022/07/05 03:15:26;;;;;;;11.70;7.38;;;;;;;12.60;90.89;102045.00;4878889;29;20396;-71
2022/07/05 03:17:51;;;;;;;12.88;7.25;;;;;;;12.58;90.27;102033.66;4878723;29;20029;-71
2022/07/05 03:20:17;;;;;;;11.48;7.25;;;;;;;12.52;90.81;102038.88;4862222;29;20040;-71
2022/07/05 03:22:42;;;;;;;11.88;6.90;;;;;;;12.58;90.84;102047.03;4861804;29;20176;-71
2022/07/05 03:25:09;;;;;;;12.88;7.97;;;;;;;12.58;91.00;102054.25;4878915;29;20037;-71
2022/07/05 03:27:34;;;;;;;12.95;7.97;;;;;;;12.49;91.20;102054.28;4878726;29;20029;-71
2022/07/05 03:29:59;;;;;;;14.68;8.23;;;;;;;12.45;91.29;102057.50;4878523;29;20481;-71
2022/07/05 03:32:25;;;;;;;11.27;7.03;;;;;;;12.41;91.70;102062.38;4878461;29;20044;-71
2022/07/05 03:34:50;;;;;;;14.77;7.88;;;;;;;12.41;92.12;102058.88;4878568;29;20045;-71
2022/07/05 03:37:16;;;;;;;12.63;7.05;;;;;;;12.43;92.07;102064.88;4878684;29;20476;-71
2022/07/05 03:39:41;;;;;;;15.25;8.32;;;;;;;12.40;91.69;102058.03;4878489;29;20048;-71
2022/07/05 03:42:06;;;;;;;14.38;8.13;;;;;;;12.39;91.69;102056.38;4878455;29;20033;-71
2022/07/05 03:44:32;;;;;;;11.75;6.97;;;;;;;12.39;91.58;102069.75;4878296;29;20041;-71
2022/07/05 03:47:00;;;;;;;11.65;6.85;;;;;;;12.40;91.71;102078.63;4861639;29;20025;-71
2022/07/05 03:49:26;;;;;;;13.88;7.72;;;;;;;12.40;91.46;102068.75;4877988;29;20033;-71
2022/07/05 03:51:51;;;;;;;16.15;8.23;;;;;;;12.41;91.88;102062.38;4878027;29;20029;-71
2022/07/05 03:54:17;;;;;;;13.23;7.82;;;;;;;12.34;91.63;102042.72;4878348;29;20485;-71
2022/07/05 03:56:42;;;;;;;14.85;7.65;;;;;;;12.39;91.43;102053.72;4878091;29;20127;-71
2022/07/05 03:59:08;;;;;;;15.18;8.25;;;;;;;12.41;92.17;102061.53;4877892;29;20185;-71
2022/07/05 04:01:33;;;;;;;13.95;9.20;;;;;;;12.42;92.28;102061.38;4877539;29;20041;-70
2022/07/05 04:03:58;;;;;;;11.43;7.25;;;;;;;12.47;92.26;102068.84;4877732;29;20041;-71
2022/07/05 04:06:24;;;;;;;17.10;8.95;;;;;;;12.53;92.64;102078.03;4877653;29;20083;-71
2022/07/05 04:08:49;;;;;;;14.75;7.93;;;;;;;12.56;92.17;102075.00;4877621;29;20112;-71
2022/07/05 04:11:15;;;;;;;14.13;8.27;;;;;;;12.60;92.80;102078.94;4860972;29;20108;-71
2022/07/05 04:13:41;;;;;;;15.60;7.45;;;;;;;12.62;92.18;102071.56;4877787;29;20444;-71
2022/07/05 04:16:07;;;;;;;12.95;7.88;;;;;;;12.71;93.19;102083.91;4877454;29;20045;-71
2022/07/05 04:18:32;;;;;;;14.10;8.15;;;;;;;12.78;92.84;102081.31;4877532;29;20040;-71
2022/07/05 04:20:57;;;;;;;17.20;9.35;;;;;;;12.80;92.47;102079.28;4877365;29;20127;-71
2022/07/05 04:23:23;;;;;;;13.82;8.85;;;;;;;12.78;92.71;102070.59;4877374;29;20068;-71
2022/07/05 04:25:48;;;;;;;13.95;8.45;;;;;;;12.92;92.13;102086.72;4877463;29;20037;-71
2022/07/05 04:28:13;;;;;;;14.40;8.00;;;;;;;12.99;92.41;102077.94;4877281;29;20083;-71
2022/07/05 04:30:39;;;;;;;15.50;9.10;;;;;;;13.05;92.01;102079.91;4860007;29;20044;-71
2022/07/05 04:33:04;;;;;;;14.38;8.45;;;;;;;13.09;92.08;102082.00;4877120;29;20093;-71
2022/07/05 04:35:29;;;;;;;16.25;8.45;;;;;;;13.16;92.60;102082.97;4877120;29;20048;-71
2022/07/05 04:37:55;;;;;;;15.82;9.63;;;;;;;13.21;92.93;102079.72;4877075;29;20033;-71
2022/07/05 04:40:20;;;;;;;14.70;8.63;;;;;;;13.23;93.47;102079.53;4877006;29;20053;-71
2022/07/05 04:42:46;;;;;;;19.10;9.50;;;;;;;13.33;93.20;102080.94;4876978;29;20029;-71
2022/07/05 04:45:11;;;;;;;16.42;9.82;;;;;;;13.35;93.40;102070.88;4876919;29;20035;-71
2022/07/05 04:47:36;;;;;;;16.92;10.70;;;;;;;13.47;93.03;102084.66;4876893;29;20104;-71
2022/07/05 04:50:03;;;;;;;19.13;11.38;;;;;;;13.53;92.29;102069.69;4876826;29;20441;-71
2022/07/05 04:52:29;;;;;;;18.20;10.88;;;;;;;13.56;92.79;102072.81;4876738;29;20040;-71
2022/07/05 04:54:54;;;;;;;18.10;11.52;;;;;;;13.71;92.59;102083.53;4876777;29;20398;-71
2022/07/05 04:57:20;;;;;;;20.95;12.93;;;;;;;13.77;91.53;102085.44;4876726;29;20037;-71
2022/07/05 04:59:46;;;;;;;17.52;10.95;;;;;;;13.82;92.92;102072.31;4876453;29;20477;-71
2022/07/05 05:02:11;;;;;;;19.98;13.35;;;;;;;13.94;92.86;102086.09;4875708;29;20040;-71
2022/07/05 05:04:37;;;;;;;18.70;12.25;;;;;;;13.99;92.00;102074.78;4876595;29;20033;-71
2022/07/05 05:07:02;;;;;;;21.17;12.35;;;;;;;14.02;91.71;102074.41;4876579;29;20044;-71
2022/07/05 05:09:28;;;;;;;20.70;13.57;;;;;;;14.05;91.73;102073.22;4876413;29;20061;-71
2022/07/05 05:11:53;;;;;;;19.25;12.15;;;;;;;14.09;92.13;102077.97;4876369;29;20499;-71
2022/07/05 05:14:19;;;;;;;22.20;13.45;;;;;;;14.15;91.85;102077.25;4868922;29;20036;-71
2022/07/05 05:16:44;;;;;;;21.45;12.35;;;;;;;14.21;91.88;102076.47;4876365;29;20520;-71
2022/07/05 05:19:09;;;;;;;21.48;12.65;;;;;;;14.22;90.75;102080.81;4876116;29;20043;-71
2022/07/05 05:21:35;;;;;;;18.13;11.18;;;;;;;14.30;89.89;102087.06;4859065;29;20029;-71
2022/07/05 05:24:00;;;;;;;19.27;12.95;;;;;;;14.39;90.72;102085.94;4875812;29;20047;-71
2022/07/05 05:26:26;;;;;;;22.08;13.60;;;;;;;14.45;90.93;102090.53;4875663;29;20037;-71
2022/07/05 05:28:51;;;;;;;19.55;12.00;;;;;;;14.48;90.22;102090.97;4875602;29;20172;-71
2022/07/05 05:31:17;;;;;;;18.00;10.90;;;;;;;14.52;89.96;102091.44;4875615;29;20033;-71
2022/07/05 05:33:43;;;;;;;19.85;12.40;;;;;;;14.60;90.03;102087.81;4875529;29;20077;-71
2022/07/05 05:36:08;;;;;;;18.05;11.02;;;;;;;14.68;89.95;102101.13;4869394;29;20041;-71
2022/07/05 05:38:34;;;;;;;19.45;12.68;;;;;;;14.75;90.05;102099.31;4876009;29;20141;-71
2022/07/05 05:40:59;;;;;;;22.83;13.32;;;;;;;14.78;88.87;102100.78;4875875;29;20056;-71
2022/07/05 05:43:25;;;;;;;20.85;11.88;;;;;;;14.89;89.17;102102.94;4875717;29;20072;-71
2022/07/05 05:45:50;;;;;;;20.98;13.32;;;;;;;14.96;88.70;102097.59;4875941;29;20029;-71
2022/07/05 05:48:15;;;;;;;20.38;13.43;;;;;;;15.02;87.53;102108.41;4875754;29;20384;-71
2022/07/05 05:50:41;;;;;;;21.90;14.52;;;;;;;15.08;89.28;102107.63;4875642;29;20069;-71
2022/07/05 05:53:07;;;;;;;23.25;13.75;;;;;;;15.07;88.93;102097.91;4875420;29;20033;-71
2022/07/05 05:55:33;;;;;;;20.23;13.48;;;;;;;15.18;88.17;102111.84;4875653;29;20618;-65
2022/07/05 05:58:14;;;;;;;22.98;13.15;;;;;;;15.21;87.65;102108.75;4875595;29;20111;-66
2022/07/05 06:00:40;;;;;;;19.85;12.43;;;;;;;15.26;87.99;102117.06;4875069;29;20053;-66
2022/07/05 06:03:06;;;;;;;21.45;13.43;;;;;;;15.36;89.21;102124.78;4875190;29;20033;-65
2022/07/05 06:05:31;;;;;;;19.50;13.65;;;;;;;15.40;87.87;102131.41;4875112;29;20076;-66
2022/07/05 06:07:57;;;;;;;19.38;14.27;;;;;;;15.45;88.61;102134.34;4858300;29;20396;-67
2022/07/05 06:10:25;;;;;;;21.13;14.00;;;;;;;15.52;88.05;102129.84;4858374;29;20032;-66
2022/07/05 06:12:52;;;;;;;20.17;14.32;;;;;;;15.64;87.23;102132.78;4874628;29;20138;-66
2022/07/05 06:15:18;;;;;;;22.48;14.55;;;;;;;15.72;85.89;102132.69;4875012;29;20041;-66
2022/07/05 06:17:44;;;;;;;22.40;14.27;;;;;;;15.83;86.97;102136.66;4874840;29;20037;-66
2022/07/05 06:20:11;;;;;;;21.85;13.43;;;;;;;15.95;86.51;102137.72;4874966;29;20410;-66
2022/07/05 06:22:37;;;;;;;21.58;13.73;;;;;;;16.02;84.80;102135.91;4874893;29;20477;-71
2022/07/05 06:25:04;;;;;;;19.77;13.02;;;;;;;16.02;84.13;102118.94;4874849;29;20037;-71
2022/07/05 06:27:30;;;;;;;19.88;12.75;;;;;;;16.07;84.27;102117.28;4874667;29;20029;-70
2022/07/05 06:29:55;;;;;;;19.35;12.90;;;;;;;16.27;85.15;102128.13;4858309;29;20507;-71
2022/07/05 06:32:21;;;;;;;19.17;12.30;;;;;;;16.35;82.88;102130.63;4874863;29;20033;-71
2022/07/05 06:34:47;;;;;;;17.63;11.00;;;;;;;16.42;82.45;102136.00;4874934;29;20578;-71
2022/07/05 06:37:12;;;;;;;17.75;12.32;;;;;;;16.50;82.35;102141.19;4868844;29;20029;-74
2022/07/05 06:39:37;;;;;;;21.83;12.75;;;;;;;16.59;83.51;102139.16;4875096;29;20033;-73
2022/07/05 06:42:03;;;;;;;16.13;10.90;;;;;;;16.64;82.26;102132.13;4874773;29;20068;-72
2022/07/05 06:44:28;;;;;;;18.27;11.98;;;;;;;16.74;81.97;102149.72;4874763;29;20041;-72
2022/07/05 06:46:54;;;;;;;17.35;9.70;;;;;;;16.77;79.08;102146.66;4868900;29;20172;-73
2022/07/05 06:49:19;;;;;;;17.02;10.32;;;;;;;16.86;79.39;102148.94;4871468;29;20084;-72
2022/07/05 06:51:44;;;;;;;15.88;9.82;;;;;;;16.93;79.68;102148.97;4870203;29;20128;-72
2022/07/05 06:54:10;;;;;;;15.48;10.13;;;;;;;17.07;79.38;102157.88;4865500;29;20128;-74
2022/07/05 06:56:35;;;;;;;16.42;10.20;;;;;;;17.15;77.71;102151.44;4871439;29;20037;-72
2022/07/05 06:59:00;;;;;;;16.75;10.38;;;;;;;17.19;77.66;102150.00;4873239;29;20057;-74
2022/07/05 07:01:26;;;;;;;14.18;9.52;;;;;;;17.29;77.84;102153.94;4875133;29;20077;-74
2022/07/05 07:03:51;;;;;;;14.70;9.45;;;;;;;17.36;76.12;102153.09;4875022;29;20469;-74
2022/07/05 07:06:17;;;;;;;15.32;9.02;;;;;;;17.35;75.88;102146.03;4875434;29;20504;-68
2022/07/05 07:11:26;;;;;;;14.68;9.98;;;;;;;17.33;78.01;102145.41;4875379;29;20041;-68
2022/07/05 07:13:52;;;;;;;21.15;10.75;;;;;;;17.38;77.43;102156.41;4874934;29;20425;-68
2022/07/05 07:16:17;;;;;;;13.30;9.30;;;;;;;17.46;75.56;102140.00;4874876;29;20489;-68
2022/07/05 07:18:43;;;;;;;17.13;10.30;;;;;;;17.61;76.70;102145.97;4874939;29;20119;-68
2022/07/05 07:21:08;;;;;;;13.25;8.32;;;;;;;17.75;73.83;102146.75;4875004;29;20037;-68
2022/07/05 07:23:33;;;;;;;13.10;7.53;;;;;;;17.90;73.41;102151.94;4858370;29;20115;-68
2022/07/05 07:25:59;;;;;;;14.93;9.93;;;;;;;18.04;74.34;102156.22;4876876;29;20029;-68
2022/07/05 07:28:24;;;;;;;12.43;7.85;;;;;;;18.19;74.18;102155.97;4861794;29;20045;-68
2022/07/05 07:30:49;;;;;;;15.05;8.95;;;;;;;18.27;72.36;102160.28;4878201;29;20683;-67
2022/07/05 07:33:15;;;;;;;13.93;8.13;;;;;;;18.32;72.97;102157.78;4878160;29;20029;-69
2022/07/05 07:35:40;;;;;;;12.85;7.97;;;;;;;18.32;72.07;102160.47;4878366;29;20880;-68
2022/07/05 07:38:06;;;;;;;13.48;7.57;;;;;;;18.34;71.75;102167.31;4878203;29;20389;-68
2022/07/05 07:40:31;;;;;;;11.73;7.40;;;;;;;18.42;73.09;102168.94;4878377;29;21165;-68
2022/07/05 07:42:56;;;;;;;15.00;7.57;;;;;;;18.47;72.46;102166.41;4861365;29;20033;-67
2022/07/05 07:45:22;;;;;;;11.95;6.47;;;;;;;18.54;73.07;102161.78;4878185;29;20144;-67
2022/07/05 07:47:47;;;;;;;9.30;6.30;;;;;;;18.60;72.02;102157.38;4877877;29;20045;-68
2022/07/05 07:50:12;;;;;;;12.57;6.13;;;;;;;18.71;72.46;102161.28;4878060;29;20033;-67
2022/07/05 07:52:38;;;;;;;14.85;8.10;;;;;;;18.86;70.91;102161.78;4877901;29;20029;-68
2022/07/05 07:55:05;;;;;;;14.60;6.95;;;;;;;18.97;71.58;102166.50;4877844;29;20068;-67
2022/07/05 07:57:30;;;;;;;12.70;7.20;;;;;;;19.08;71.87;102159.53;4877895;29;20596;-68
2022/07/05 07:59:56;;;;;;;16.25;7.50;;;;;;;19.09;70.09;102169.31;4879521;29;20068;-67
2022/07/05 08:02:22;;;;;;;11.98;7.47;;;;;;;19.13;69.44;102164.31;4877851;29;20037;-67
2022/07/05 08:04:49;;;;;;;11.90;6.45;;;;;;;19.13;69.37;102165.13;4873481;29;20473;-67
2022/07/05 08:07:15;;;;;;;10.30;5.80;;;;;;;19.23;70.12;102164.59;4873194;29;20029;-67
2022/07/05 08:09:40;;;;;;;11.85;6.68;;;;;;;19.36;70.27;102169.06;4873747;29;20780;-66
2022/07/05 08:12:06;;;;;;;14.95;7.47;;;;;;;19.54;72.00;102165.56;4873661;29;20085;-67
2022/07/05 08:14:32;;;;;;;12.63;7.15;;;;;;;19.64;69.94;102160.44;4873832;29;20389;-66
2022/07/05 08:16:58;;;;;;;10.75;5.40;;;;;;;20.08;68.35;102163.91;4873420;29;20089;-66
2022/07/05 08:22:08;;;;;;;12.05;6.30;;;;;;;20.64;64.53;102170.88;4875668;29;20157;-67
2022/07/05 08:24:34;;;;;;;11.45;5.85;;;;;;;20.60;65.31;102166.16;4877351;29;20551;-68
2022/07/05 08:27:00;;;;;;;9.93;5.90;;;;;;;20.86;66.28;102168.47;4877306;29;20033;-68
2022/07/05 08:29:25;;;;;;;11.48;6.05;;;;;;;20.98;65.03;102174.72;4877193;29;20414;-68
2022/07/05 08:31:52;;;;;;;9.75;4.97;;;;;;;20.94;63.39;102175.44;4877338;29;20381;-68
2022/07/05 08:34:18;;;;;;;7.22;4.85;;;;;;;20.66;62.67;102181.50;4877311;29;20037;-67
2022/07/05 08:36:44;;;;;;;10.18;6.10;;;;;;;20.47;64.48;102167.16;4860469;29;20430;-67
2022/07/05 08:39:10;;;;;;;9.23;4.53;;;;;;;20.67;64.96;102175.00;4875677;29;20064;-67
2022/07/05 08:41:38;;;;;;;9.57;5.18;;;;;;;21.17;63.61;102178.16;4876972;29;20061;-67
2022/07/05 08:44:04;;;;;;;11.60;6.20;;;;;;;22.00;61.16;102169.94;4877139;29;20036;-68
2022/07/05 08:46:32;;;;;;;8.93;4.97;;;;;;;22.44;59.51;102173.00;4876984;29;20053;-68
2022/07/05 08:49:00;;;;;;;11.27;5.65;;;;;;;22.50;60.66;102172.00;4877017;29;20507;-68
2022/07/05 08:51:27;;;;;;;13.45;5.82;;;;;;;22.71;60.04;102173.19;4860308;29;20457;-67
2022/07/05 08:53:55;;;;;;;10.75;5.70;;;;;;;23.70;56.04;102169.81;4876814;29;20039;-68
2022/07/05 08:56:21;;;;;;;8.65;4.90;;;;;;;23.52;53.72;102162.75;4876983;29;20081;-67
2022/07/05 08:58:49;;;;;;;9.25;4.22;;;;;;;23.62;54.77;102172.97;4876664;29;20037;-67
2022/07/05 09:01:15;;;;;;;9.55;5.65;;;;;;;24.18;54.95;102160.09;4877197;29;20481;-68
2022/07/05 09:03:46;;;;;;;8.77;5.10;;;;;;;25.00;53.63;102166.31;4876307;29;20033;-68
2022/07/05 09:06:13;;;;;;;;;;;;;;;26.41;55.54;102160.16;4877313;29;20067;-67
2022/07/05 09:08:40;;;;;;;12.07;4.95;;;;;;;27.14;46.48;102157.13;4876715;29;19940;-68
2022/07/05 09:11:13;;;;;;;13.63;5.53;;;;;;;26.31;49.09;102163.69;4876714;29;20081;-68
2022/07/05 09:13:47;;;;;;;12.27;5.70;;;;;;;25.02;50.54;102166.88;4876342;29;20067;-67
2022/07/05 09:16:13;;;;;;;11.20;5.63;;;;;;;24.09;52.14;102177.13;4876261;29;20105;-67
2022/07/05 09:18:43;;;;;;;8.70;5.00;;;;;;;23.25;53.06;102165.38;4876706;29;20935;-68
2022/07/05 09:21:27;;;;;;;10.70;4.47;;;;;;;22.89;54.82;102167.50;4876434;29;20485;-67
2022/07/05 09:23:57;;;;;;;8.60;4.72;;;;;;;22.43;56.29;102169.47;4876484;29;20392;-68
2022/07/05 09:26:48;;;;;;;8.20;4.72;;;;;;;21.90;57.14;102167.84;4876291;29;20115;-67
2022/07/05 09:29:17;;;;;;;9.30;3.77;;;;;;;21.84;57.44;102174.25;4869430;29;20584;-67
2022/07/05 09:31:45;;;;;;;8.77;3.90;;;;;;;21.95;56.68;102167.94;4874715;29;20878;-67
2022/07/05 09:34:13;;;;;;;6.93;4.45;;;;;;;21.99;57.45;102171.03;4859505;29;20429;-68
2022/07/05 09:36:53;;;;;;;6.35;4.13;;;;;;;22.07;58.72;102163.31;4876052;29;20477;-67
2022/07/05 09:39:36;;;;;;;10.30;3.85;;;;;;;22.26;56.71;102166.69;4875931;29;20476;-68
2022/07/05 09:42:23;;;;;;;5.55;3.72;;;;;;;22.30;54.24;102169.75;4875766;29;20033;-67
2022/07/05 09:44:58;;;;;;;3.60;2.13;;;;;;;22.18;50.57;102166.22;4876149;29;20124;-68
2022/07/05 09:47:32;;;;;;;6.18;2.00;;;;;;;22.23;50.82;102164.44;4875358;29;20045;-67
2022/07/05 09:50:03;;;;;;;9.85;4.63;;;;;;;22.24;50.92;102157.97;4859401;29;20048;-67
2022/07/05 09:52:30;;;;;;;7.90;3.72;;;;;;;22.42;54.60;102164.25;4875676;29;20071;-68
2022/07/05 09:55:10;;;;;;;6.07;2.50;;;;;;;22.54;51.98;102156.88;4875774;29;20052;-67
2022/07/05 09:57:41;;;;;;;3.92;2.25;;;;;;;22.45;49.32;102159.16;4875673;29;20623;-67
2022/07/05 10:00:08;;;;;;;4.47;2.83;;;;;;;22.46;52.42;102160.00;4875460;29;20057;-66
2022/07/05 10:02:37;;;;;;;3.85;3.10;;;;;;;22.44;49.65;102165.66;4875806;29;20029;-67
2022/07/05 10:05:15;;;;;;;6.55;3.30;;;;;;;21.99;51.07;102163.69;4875745;29;20116;-66
2022/07/05 10:07:46;;;;;;;5.55;2.97;;;;;;;21.81;52.16;102161.97;4875697;29;20068;-67
2022/07/05 10:10:19;;;;;;;7.95;3.55;;;;;;;21.62;51.48;102149.63;4875711;29;20037;-67
2022/07/05 10:12:49;;;;;;;6.63;3.28;;;;;;;21.78;52.32;102157.00;4875369;29;20028;-67
2022/07/05 10:15:18;;;;;;;5.00;2.88;;;;;;;21.80;51.71;102157.59;4875823;29;20081;-67
2022/07/05 10:17:49;;;;;;;5.45;3.08;;;;;;;21.70;52.04;102165.53;4875514;29;20033;-67
2022/07/05 10:20:29;;;;;;;6.35;3.33;;;;;;;21.41;51.63;102154.59;4875575;29;20033;-66
2022/07/05 10:22:56;;;;;;;4.32;2.72;;;;;;;21.29;53.33;102164.59;4875542;29;20025;-66
2022/07/05 10:25:23;;;;;;;4.25;3.55;;;;;;;21.15;55.16;102168.63;4875427;29;20044;-66
2022/07/05 10:27:53;;;;;;;4.45;3.08;;;;;;;21.16;53.49;102175.69;4875662;29;20029;-67
2022/07/05 10:30:20;;;;;;;5.45;3.35;;;;;;;21.21;52.37;102165.75;4875544;29;20068;-66
2022/07/05 10:32:46;;;;;;;5.10;3.53;;;;;;;21.44;54.62;102164.97;4875487;29;20043;-66
2022/07/05 10:35:11;;;;;;;8.50;3.53;;;;;;;21.71;50.83;102158.22;4875328;29;20544;-66
2022/07/05 10:37:37;;;;;;;3.70;2.92;;;;;;;22.02;51.80;102165.09;4875491;29;20033;-66
2022/07/05 10:40:06;;;;;;;5.68;3.63;;;;;;;22.23;49.89;102167.16;4875465;29;20029;-66
2022/07/05 10:42:36;;;;;;;7.70;4.00;;;;;;;22.28;49.96;102170.00;4875279;29;20025;-66
2022/07/05 10:45:02;;;;;;;4.10;3.47;;;;;;;22.21;50.75;102168.47;4875411;29;20037;-66
2022/07/05 10:47:29;;;;;;;5.55;3.60;;;;;;;22.19;50.81;102166.03;4875493;29;20115;-67
2022/07/05 10:50:05;;;;;;;9.77;5.38;;;;;;;22.31;52.12;102168.69;4858749;29;20096;-66
2022/07/05 10:52:31;;;;;;;8.20;5.20;;;;;;;22.39;50.96;102160.13;4875500;29;20401;-66
2022/07/05 10:55:17;;;;;;;4.80;2.95;;;;;;;22.58;52.02;102157.19;4875609;29;20029;-66
2022/07/05 10:57:42;;;;;;;4.63;3.42;;;;;;;22.70;50.27;102158.78;4875353;29;20029;-66
2022/07/05 11:00:10;;;;;;;6.18;4.80;;;;;;;22.61;48.12;102162.97;4887990;29;20052;-66
2022/07/05 11:02:36;;;;;;;9.48;3.70;;;;;;;22.38;49.20;102157.66;4897894;29;20064;-66
2022/07/05 11:05:03;;;;;;;5.55;3.22;;;;;;;22.34;49.63;102153.78;4897797;29;20066;-66
2022/07/05 11:08:00;;;;;;;7.05;3.78;;;;;;;22.47;50.42;102153.47;4891218;29;20040;-66
2022/07/05 11:10:25;;;;;;;5.35;3.40;;;;;;;22.56;50.74;102149.28;4893051;29;20025;-67
2022/07/05 11:12:51;;;;;;;4.95;3.30;;;;;;;22.64;49.90;102151.59;4897466;29;20040;-67
2022/07/05 11:15:16;;;;;;;5.18;3.63;;;;;;;22.73;50.55;102139.22;4897327;29;20040;-67
2022/07/05 11:17:42;;;;;;;6.45;3.85;;;;;;;22.75;49.09;102147.16;4897100;29;20036;-67
2022/07/05 11:20:13;;;;;;;7.10;4.15;;;;;;;22.53;49.04;102152.47;4896871;29;20047;-67
2022/07/05 11:23:03;;;;;;;7.00;3.88;;;;;;;22.57;50.68;102171.88;4896762;29;20020;-67
2022/07/05 11:25:31;;;;;;;7.15;3.63;;;;;;;22.24;51.62;102179.72;4887099;29;20108;-67
2022/07/05 11:28:06;;;;;;;8.57;4.10;;;;;;;21.77;51.84;102168.94;4896584;29;20036;-67
2022/07/05 11:30:51;;;;;;;6.47;3.90;;;;;;;21.47;52.83;102165.56;4896549;29;20047;-67
2022/07/05 11:33:28;;;;;;;9.48;4.60;;;;;;;21.21;54.11;102171.19;4880145;29;20053;-67